Weather at South Bend Regional Airport

Public forecast

Using degrees Fahrenheit for public forecast. Weather courtesy of forecast.io.

Current aviation weather report (METAR) for South Bend Regional Airport

2022/12/03 15:54 (retrieved 41 minutes ago)

KSBN 031554Z 30018G26KT 10SM OVC019 M01/M06 A3027 RMK AO2 PK WND 29030/1541 SLP256 T10111056

Aviation forecast (TAF) for South Bend Regional Airport

2022/12/03 13:42 Ammendment (retrieved 3 hours ago)

TAF AMD KSBN 031240Z 0313/0412 29018G32KT P6SM OVC018 FM031700 29015G25KT P6SM SCT030 FM040300 28008KT P6SM FEW250